Time;durP1;ratioP1;P1;durP2;ratioP2;P2;SDS_P1;SDS_P2;PMS_P1;PMS_P2;Temp;Humidity;BMP_temperature;BMP_pressure;BME280_temperature;BME280_humidity;BME280_pressure;Samples;Min_cycle;Max_cycle;Signal;HPM_P1;HPM_P2
2022/03/02 00:01:34;;;;;;;1.30;1.30;;;-0.30;99.90;;;;;;5256270;28;20036;-75
2022/03/02 00:04:06;;;;;;;1.42;1.42;;;-0.30;99.90;;;;;;5263583;28;20050;-76
2022/03/02 00:06:40;;;;;;;0.90;0.90;;;-0.40;99.90;;;;;;5235538;28;20052;-77
2022/03/02 00:09:11;;;;;;;1.50;1.45;;;-0.40;99.90;;;;;;5257117;28;20036;-75
2022/03/02 00:11:44;;;;;;;1.30;1.30;;;-0.30;99.90;;;;;;5270654;28;20046;-75
2022/03/02 00:14:15;;;;;;;0.40;0.40;;;-0.40;99.90;;;;;;5246636;28;20395;-75
2022/03/02 00:16:46;;;;;;;0.30;0.30;;;-0.60;99.90;;;;;;5243951;28;20034;-77
2022/03/02 00:19:23;;;;;;;1.20;1.20;;;-0.70;99.90;;;;;;5255174;28;20035;-75
2022/03/02 00:21:57;;;;;;;0.43;0.43;;;-0.80;99.90;;;;;;5228293;28;20037;-76
2022/03/02 00:24:31;;;;;;;0.90;0.90;;;-0.80;99.90;;;;;;5257078;28;20027;-75
2022/03/02 00:27:04;;;;;;;0.60;0.60;;;-0.80;99.90;;;;;;5238539;28;20078;-76
2022/03/02 00:29:41;;;;;;;4.25;1.15;;;-0.70;99.90;;;;;;5250855;28;20020;-75
2022/03/02 00:32:12;;;;;;;0.70;0.70;;;-0.70;99.90;;;;;;5229258;28;20040;-74
2022/03/02 00:34:46;;;;;;;0.60;0.60;;;-0.60;99.90;;;;;;5230517;28;20052;-75
2022/03/02 00:37:18;;;;;;;0.50;0.50;;;-0.40;99.90;;;;;;5235112;28;20536;-75
2022/03/02 00:39:52;;;;;;;0.47;0.47;;;-0.30;99.90;;;;;;5257218;28;20036;-75
2022/03/02 00:42:24;;;;;;;4.28;1.52;;;-0.20;99.90;;;;;;5262997;28;20038;-75
2022/03/02 00:44:59;;;;;;;0.50;0.50;;;0.10;99.90;;;;;;5263456;28;20031;-75
2022/03/02 00:47:31;;;;;;;0.43;0.43;;;0.10;99.90;;;;;;5233051;28;20028;-76
2022/03/02 00:50:10;;;;;;;0.40;0.40;;;0.10;99.90;;;;;;5237981;28;20039;-75
2022/03/02 00:52:42;;;;;;;0.50;0.50;;;0.00;99.90;;;;;;5271663;28;20028;-76
2022/03/02 00:55:17;;;;;;;0.40;0.40;;;0.00;99.90;;;;;;5212905;28;20492;-74
2022/03/02 00:57:52;;;;;;;3.00;2.70;;;0.10;99.90;;;;;;5230136;28;20054;-75
2022/03/02 01:00:26;;;;;;;0.85;0.85;;;0.10;99.90;;;;;;5244465;28;20043;-76
2022/03/02 01:02:58;;;;;;;0.40;0.40;;;0.10;99.90;;;;;;5247885;28;20058;-77
2022/03/02 01:05:33;;;;;;;1.25;1.23;;;0.10;99.90;;;;;;5222516;28;20048;-75
2022/03/02 01:08:05;;;;;;;;;;;0.10;99.90;;;;;;5236601;28;20046;-76
2022/03/02 01:10:39;;;;;;;1.00;1.00;;;0.00;99.90;;;;;;5251116;28;19946;-75
2022/03/02 01:13:14;;;;;;;1.08;1.08;;;0.10;99.90;;;;;;5257399;28;20035;-77
2022/03/02 01:15:50;;;;;;;0.60;0.60;;;0.00;99.90;;;;;;5240784;28;20029;-75
2022/03/02 01:18:22;;;;;;;0.82;0.82;;;-0.10;99.90;;;;;;5226070;28;20040;-75
2022/03/02 01:20:54;;;;;;;0.40;0.40;;;-0.10;99.90;;;;;;5247621;28;20028;-75
2022/03/02 01:23:27;;;;;;;0.60;0.60;;;-0.10;99.90;;;;;;5241506;28;20051;-77
2022/03/02 01:26:01;;;;;;;0.85;0.85;;;0.00;99.90;;;;;;5241598;28;20051;-77
2022/03/02 01:28:35;;;;;;;2.50;2.35;;;0.00;99.90;;;;;;5244003;28;20614;-75
2022/03/02 01:31:09;;;;;;;1.40;1.40;;;0.10;99.90;;;;;;5241181;28;20040;-75
2022/03/02 01:33:43;;;;;;;0.70;0.70;;;0.10;99.90;;;;;;5244396;28;20043;-75
2022/03/02 01:36:15;;;;;;;0.70;0.70;;;0.10;99.90;;;;;;5251616;28;20036;-75
2022/03/02 01:38:47;;;;;;;0.80;0.80;;;0.00;99.90;;;;;;5228433;28;20055;-75
2022/03/02 01:41:23;;;;;;;0.68;0.68;;;0.00;99.90;;;;;;5241874;28;20039;-75
2022/03/02 01:44:03;;;;;;;0.65;0.65;;;-0.10;99.90;;;;;;5243367;28;20032;-75
2022/03/02 01:46:38;;;;;;;2.92;2.63;;;0.00;99.90;;;;;;5241651;28;20036;-76
2022/03/02 01:49:13;;;;;;;0.77;0.77;;;0.00;99.90;;;;;;5244758;28;20036;-75
2022/03/02 01:51:47;;;;;;;0.75;0.75;;;0.20;99.90;;;;;;5242603;28;20036;-77
2022/03/02 01:54:24;;;;;;;0.47;0.47;;;0.30;99.90;;;;;;5237969;28;20326;-74
2022/03/02 01:56:56;;;;;;;0.60;0.60;;;0.30;99.90;;;;;;5261360;28;20036;-74
2022/03/02 01:59:30;;;;;;;1.02;1.02;;;0.20;99.90;;;;;;5251122;28;20039;-75
2022/03/02 02:02:08;;;;;;;1.20;1.20;;;0.40;99.90;;;;;;5238785;28;20036;-76
2022/03/02 02:04:45;;;;;;;0.70;0.70;;;0.30;99.90;;;;;;5247247;28;20383;-75
2022/03/02 02:07:17;;;;;;;1.15;1.15;;;0.20;99.90;;;;;;5229437;28;20046;-75
2022/03/02 02:09:54;;;;;;;1.23;1.10;;;0.00;99.90;;;;;;5244263;28;20050;-75
2022/03/02 02:12:25;;;;;;;0.50;0.50;;;-0.10;99.90;;;;;;5244107;28;20019;-75
2022/03/02 02:14:59;;;;;;;0.50;0.50;;;-0.10;99.90;;;;;;5260391;28;20035;-76
2022/03/02 02:17:42;;;;;;;0.60;0.60;;;-0.20;99.90;;;;;;5248280;28;20028;-76
2022/03/02 02:20:14;;;;;;;0.60;0.60;;;-0.20;99.90;;;;;;5228756;28;20020;-74
2022/03/02 02:22:50;;;;;;;0.40;0.40;;;-0.10;99.90;;;;;;5256940;28;20405;-75
2022/03/02 02:25:25;;;;;;;0.52;0.52;;;-0.10;99.90;;;;;;5231308;28;20040;-75
2022/03/02 02:28:00;;;;;;;0.40;0.40;;;0.00;99.90;;;;;;5260568;28;20058;-74
2022/03/02 02:30:38;;;;;;;0.93;0.93;;;0.10;99.90;;;;;;5238978;28;20044;-77
2022/03/02 02:33:12;;;;;;;2.17;2.05;;;0.10;99.90;;;;;;5245708;28;20327;-75
2022/03/02 02:35:48;;;;;;;0.95;0.95;;;0.10;99.90;;;;;;5232550;28;20677;-74
2022/03/02 02:38:23;;;;;;;0.40;0.40;;;0.10;99.90;;;;;;5232836;28;20036;-75
2022/03/02 02:40:59;;;;;;;0.47;0.47;;;0.10;99.90;;;;;;5266111;28;20035;-74
2022/03/02 02:43:34;;;;;;;1.50;1.50;;;0.10;99.90;;;;;;5238269;28;20024;-75
2022/03/02 02:46:07;;;;;;;4.15;3.13;;;0.10;99.90;;;;;;5256570;28;20463;-76
2022/03/02 02:48:41;;;;;;;1.15;1.15;;;0.10;99.90;;;;;;5262745;28;20508;-76
2022/03/02 02:51:22;;;;;;;0.93;0.93;;;0.10;99.90;;;;;;5230063;28;20032;-76
2022/03/02 02:53:55;;;;;;;0.60;0.60;;;0.10;99.90;;;;;;5246486;28;20052;-75
2022/03/02 02:56:27;;;;;;;1.25;1.25;;;0.10;99.90;;;;;;5229053;28;20044;-77
2022/03/02 02:58:58;;;;;;;0.80;0.80;;;0.10;99.90;;;;;;5263876;28;20044;-74
2022/03/02 03:01:33;;;;;;;1.00;1.00;;;0.10;99.90;;;;;;5243414;28;20024;-76
2022/03/02 03:04:09;;;;;;;0.68;0.68;;;0.10;99.90;;;;;;5243139;28;20043;-77
2022/03/02 03:06:42;;;;;;;0.73;0.73;;;0.00;99.90;;;;;;5238147;28;20060;-75
2022/03/02 03:09:22;;;;;;;0.50;0.50;;;0.00;99.90;;;;;;5244377;28;20033;-75
2022/03/02 03:12:01;;;;;;;1.15;1.15;;;0.00;99.90;;;;;;5253319;28;20050;-74
2022/03/02 03:14:36;;;;;;;0.63;0.63;;;0.00;99.90;;;;;;5235072;28;20074;-75
2022/03/02 03:17:07;;;;;;;1.30;1.30;;;0.00;99.90;;;;;;5256487;28;20363;-76
2022/03/02 03:19:39;;;;;;;0.60;0.60;;;0.00;99.90;;;;;;5226138;28;20041;-76
2022/03/02 03:22:11;;;;;;;0.40;0.40;;;-0.10;99.90;;;;;;5227468;28;20039;-75
2022/03/02 03:24:45;;;;;;;1.02;0.88;;;-0.20;99.90;;;;;;5234189;28;20040;-75
2022/03/02 03:27:17;;;;;;;2.08;1.08;;;-0.20;99.90;;;;;;5244404;28;20032;-76
2022/03/02 03:29:50;;;;;;;1.13;1.13;;;-0.20;99.90;;;;;;5226816;28;20050;-75
2022/03/02 03:32:32;;;;;;;0.73;0.73;;;-0.20;99.90;;;;;;5258915;28;20036;-75
2022/03/02 03:35:11;;;;;;;0.50;0.50;;;-0.20;99.90;;;;;;5251105;28;20469;-77
2022/03/02 03:37:44;;;;;;;0.47;0.47;;;-0.10;99.90;;;;;;5209060;28;20059;-76
2022/03/02 03:40:21;;;;;;;0.40;0.40;;;-0.20;99.90;;;;;;5235250;28;20048;-76
2022/03/02 03:42:56;;;;;;;0.60;0.60;;;-0.10;99.90;;;;;;5248442;28;20039;-75
2022/03/02 03:45:27;;;;;;;0.80;0.80;;;-0.20;99.90;;;;;;5226902;28;20040;-75
2022/03/02 03:47:59;;;;;;;0.50;0.50;;;-0.20;99.90;;;;;;5238559;28;20048;-75
2022/03/02 03:50:31;;;;;;;0.83;0.83;;;-0.20;99.90;;;;;;5234202;28;20056;-75
2022/03/02 03:53:05;;;;;;;1.67;1.58;;;-0.20;99.90;;;;;;5226304;28;20074;-75
2022/03/02 03:55:41;;;;;;;0.70;0.70;;;-0.20;99.90;;;;;;5253582;28;20046;-75
2022/03/02 03:58:12;;;;;;;0.40;0.40;;;-0.30;99.90;;;;;;5264133;28;20554;-75
2022/03/02 04:00:47;;;;;;;0.50;0.50;;;-0.30;99.90;;;;;;5257438;28;20033;-75
2022/03/02 04:03:18;;;;;;;;;;;-0.30;99.90;;;;;;5219187;28;20039;-75
2022/03/02 04:05:56;;;;;;;0.40;0.40;;;-0.30;99.90;;;;;;5217632;28;20440;-75
2022/03/02 04:08:31;;;;;;;1.08;1.08;;;-0.40;99.90;;;;;;5239136;28;20029;-75
2022/03/02 04:11:03;;;;;;;1.02;1.02;;;-0.50;99.90;;;;;;5251137;28;20370;-76
2022/03/02 04:13:35;;;;;;;0.80;0.80;;;-0.50;99.90;;;;;;5264700;28;20238;-75
2022/03/02 04:16:12;;;;;;;2.20;2.00;;;-0.50;99.90;;;;;;5221345;28;20051;-75
2022/03/02 04:18:46;;;;;;;0.40;0.40;;;-0.50;99.90;;;;;;5261684;28;20040;-75
2022/03/02 04:21:21;;;;;;;0.68;0.68;;;-0.40;99.90;;;;;;5233454;28;20051;-75
2022/03/02 04:24:03;;;;;;;1.30;1.30;;;-0.40;99.90;;;;;;5242313;28;20240;-75
2022/03/02 04:26:37;;;;;;;0.55;0.55;;;-0.50;99.90;;;;;;5242151;28;20040;-75
2022/03/02 04:29:10;;;;;;;0.65;0.65;;;-0.60;99.90;;;;;;5248778;28;20039;-77
2022/03/02 04:31:49;;;;;;;1.10;1.10;;;-0.50;99.90;;;;;;5256623;28;20024;-75
2022/03/02 04:34:23;;;;;;;1.07;1.07;;;-0.50;99.90;;;;;;5238078;28;20035;-76
2022/03/02 04:36:55;;;;;;;2.15;2.03;;;-0.50;99.90;;;;;;5245310;28;20521;-75
2022/03/02 04:39:35;;;;;;;0.60;0.60;;;-0.50;99.90;;;;;;5253420;28;20035;-75
2022/03/02 04:42:06;;;;;;;0.90;0.90;;;-0.50;99.90;;;;;;5246460;28;20046;-75
2022/03/02 04:44:41;;;;;;;0.50;0.50;;;-0.50;99.90;;;;;;5255848;28;20040;-76
2022/03/02 04:47:17;;;;;;;;;;;-0.50;99.90;;;;;;5230577;28;20056;-75
2022/03/02 04:49:54;;;;;;;0.50;0.50;;;-0.50;99.90;;;;;;5232873;28;19920;-76
2022/03/02 04:52:28;;;;;;;1.05;1.05;;;-0.50;99.90;;;;;;5233078;28;20432;-74
2022/03/02 04:55:05;;;;;;;;;;;-0.50;99.90;;;;;;5211482;28;20265;-74
2022/03/02 04:57:40;;;;;;;0.47;0.47;;;-0.50;99.90;;;;;;5250153;28;19930;-76
2022/03/02 05:00:21;;;;;;;0.77;0.77;;;-0.40;99.90;;;;;;5231629;28;20600;-76
2022/03/02 05:02:54;;;;;;;1.13;1.07;;;-0.40;99.90;;;;;;5236008;28;20053;-75
2022/03/02 05:05:38;;;;;;;0.70;0.70;;;-0.50;99.90;;;;;;5224651;28;20094;-77
2022/03/02 05:08:13;;;;;;;1.05;1.05;;;-0.50;99.90;;;;;;5235638;28;20033;-75
2022/03/02 05:10:47;;;;;;;1.30;1.30;;;-0.60;99.90;;;;;;5255908;28;20036;-76
2022/03/02 05:13:20;;;;;;;1.95;1.85;;;-0.60;99.90;;;;;;5255979;28;20103;-78
2022/03/02 05:15:51;;;;;;;0.50;0.50;;;-0.60;99.90;;;;;;5239140;28;20103;-76
2022/03/02 05:18:30;;;;;;;0.70;0.70;;;-0.60;99.90;;;;;;5255223;28;20034;-75
2022/03/02 05:21:09;;;;;;;0.40;0.40;;;-0.60;99.90;;;;;;5248004;28;20035;-76
2022/03/02 05:23:41;;;;;;;0.57;0.57;;;-0.70;99.90;;;;;;5243088;28;20056;-76
2022/03/02 05:26:12;;;;;;;0.97;0.97;;;-0.70;99.90;;;;;;5255337;28;20460;-74
2022/03/02 05:28:44;;;;;;;1.05;1.05;;;-0.70;99.90;;;;;;5256677;28;20026;-74
2022/03/02 05:31:21;;;;;;;1.53;1.43;;;-0.80;99.90;;;;;;5263247;28;20584;-75
2022/03/02 05:33:52;;;;;;;0.43;0.43;;;-0.80;99.90;;;;;;5257058;28;20040;-73
2022/03/02 05:36:27;;;;;;;0.73;0.73;;;-0.70;99.90;;;;;;5246910;28;20039;-74
2022/03/02 05:39:03;;;;;;;0.45;0.45;;;-0.80;99.90;;;;;;5263377;28;20052;-76
2022/03/02 05:41:44;;;;;;;0.50;0.50;;;-0.80;99.90;;;;;;5245147;28;20062;-75
2022/03/02 05:44:20;;;;;;;0.70;0.70;;;-0.70;99.90;;;;;;5229129;28;20047;-75
2022/03/02 05:46:52;;;;;;;0.63;0.63;;;-0.70;99.90;;;;;;5249764;28;20054;-78
2022/03/02 05:49:25;;;;;;;0.50;0.50;;;-0.70;99.90;;;;;;5240283;28;20050;-76
2022/03/02 05:51:58;;;;;;;5.73;2.30;;;-0.70;99.90;;;;;;5225968;28;20601;-74
2022/03/02 05:54:34;;;;;;;0.60;0.60;;;-0.70;99.90;;;;;;5255881;28;20050;-75
2022/03/02 05:57:06;;;;;;;0.53;0.53;;;-0.70;99.90;;;;;;5237096;28;20297;-75
2022/03/02 05:59:40;;;;;;;0.40;0.40;;;-0.60;99.90;;;;;;5230880;28;20043;-76
2022/03/02 06:02:12;;;;;;;1.93;1.77;;;-0.60;99.90;;;;;;5243759;28;20028;-74
2022/03/02 06:04:47;;;;;;;0.60;0.60;;;-0.60;99.90;;;;;;5208529;28;20055;-75
2022/03/02 06:07:19;;;;;;;0.50;0.50;;;-0.50;99.90;;;;;;5240742;28;20413;-75
2022/03/02 06:09:54;;;;;;;0.82;0.82;;;-0.40;99.90;;;;;;5250580;28;20517;-75
2022/03/02 06:12:28;;;;;;;0.60;0.60;;;-0.40;99.90;;;;;;5253302;28;20032;-75
2022/03/02 06:15:00;;;;;;;2.05;1.65;;;-0.30;99.90;;;;;;5235749;28;20046;-74
2022/03/02 06:17:36;;;;;;;2.15;2.05;;;-0.30;99.90;;;;;;5256317;28;20051;-74
2022/03/02 06:20:15;;;;;;;0.73;0.73;;;-0.10;99.90;;;;;;5244527;28;20512;-74
2022/03/02 06:22:48;;;;;;;0.43;0.43;;;0.00;99.90;;;;;;5244618;28;20344;-73
2022/03/02 06:25:26;;;;;;;0.40;0.40;;;0.10;99.90;;;;;;5221796;28;20360;-73
2022/03/02 06:27:57;;;;;;;0.80;0.80;;;0.10;99.90;;;;;;5205098;28;20277;-74
2022/03/02 06:30:32;;;;;;;0.55;0.55;;;0.20;99.90;;;;;;5238488;28;20028;-74
2022/03/02 06:33:05;;;;;;;;;;;0.40;99.90;;;;;;5243206;28;20040;-73
2022/03/02 06:35:36;;;;;;;0.60;0.60;;;0.50;99.90;;;;;;5259135;28;19912;-74
2022/03/02 06:38:13;;;;;;;0.50;0.50;;;0.70;99.90;;;;;;5245820;28;20036;-74
2022/03/02 06:41:09;;;;;;;0.60;0.60;;;0.80;99.90;;;;;;5250537;28;20104;-76
2022/03/02 06:44:01;;;;;;;0.68;0.68;;;0.90;99.90;;;;;;5257150;28;20052;-75
2022/03/02 06:47:19;;;;;;;0.57;0.57;;;1.00;99.90;;;;;;5208063;28;20221;-74
2022/03/02 06:50:15;;;;;;;0.50;0.50;;;1.10;99.90;;;;;;5208588;28;20175;-74
2022/03/02 06:52:54;;;;;;;0.47;0.47;;;1.20;99.90;;;;;;5251280;28;20035;-74
2022/03/02 06:55:29;;;;;;;0.60;0.60;;;1.20;99.90;;;;;;5205190;28;20052;-74
2022/03/02 06:58:08;;;;;;;0.68;0.68;;;1.30;99.90;;;;;;5248787;28;20390;-75
2022/03/02 07:00:43;;;;;;;0.45;0.45;;;1.40;99.90;;;;;;5248182;28;20027;-74
2022/03/02 07:03:30;;;;;;;0.50;0.50;;;1.40;99.90;;;;;;5219980;28;20047;-75
2022/03/02 07:06:02;;;;;;;0.60;0.60;;;1.40;99.90;;;;;;5210836;28;20056;-75
2022/03/02 07:08:35;;;;;;;0.50;0.50;;;1.50;99.90;;;;;;5238097;28;20501;-74
2022/03/02 07:11:11;;;;;;;2.00;1.90;;;1.60;99.90;;;;;;5237922;28;20048;-74
2022/03/02 07:13:45;;;;;;;1.15;1.15;;;1.70;99.90;;;;;;5237973;28;20036;-74
2022/03/02 07:16:22;;;;;;;0.88;0.88;;;1.70;99.90;;;;;;5250295;28;20534;-75
2022/03/02 07:18:53;;;;;;;0.70;0.70;;;1.70;99.90;;;;;;5242237;28;20054;-74
2022/03/02 07:21:33;;;;;;;1.23;1.23;;;1.80;99.90;;;;;;5230646;28;20035;-75
2022/03/02 07:24:16;;;;;;;2.80;2.60;;;1.80;99.90;;;;;;5245161;28;20039;-75
2022/03/02 07:26:59;;;;;;;0.73;0.73;;;1.80;99.90;;;;;;5226481;28;20375;-75
2022/03/02 07:29:39;;;;;;;1.40;1.30;;;1.90;99.90;;;;;;5235033;28;20039;-75
2022/03/02 07:32:14;;;;;;;0.80;0.80;;;1.90;99.90;;;;;;5238454;28;20054;-75
2022/03/02 07:34:58;;;;;;;1.30;1.30;;;2.00;99.90;;;;;;5246402;28;20048;-74
2022/03/02 07:37:30;;;;;;;0.60;0.60;;;2.00;99.90;;;;;;5243981;28;20020;-75
2022/03/02 07:40:05;;;;;;;1.20;1.17;;;2.20;99.90;;;;;;5228019;28;20429;-75
2022/03/02 07:42:39;;;;;;;0.68;0.68;;;2.10;99.90;;;;;;5244185;28;20024;-75
2022/03/02 07:45:10;;;;;;;2.43;2.33;;;2.10;99.90;;;;;;5211527;28;20044;-75
2022/03/02 07:47:48;;;;;;;1.00;1.00;;;2.20;99.90;;;;;;5234453;28;20272;-74
2022/03/02 07:50:19;;;;;;;0.55;0.55;;;2.20;99.90;;;;;;5239668;28;20040;-75
2022/03/02 07:52:54;;;;;;;0.68;0.68;;;2.40;99.90;;;;;;5243468;28;20039;-75
2022/03/02 07:55:30;;;;;;;0.88;0.88;;;2.40;99.90;;;;;;5242467;28;20040;-75
2022/03/02 07:58:08;;;;;;;0.43;0.43;;;2.40;99.90;;;;;;5225179;28;20033;-74
2022/03/02 08:00:40;;;;;;;0.57;0.57;;;2.40;99.90;;;;;;5248310;28;20036;-75
2022/03/02 08:03:14;;;;;;;1.25;1.13;;;2.50;99.90;;;;;;5236836;28;20032;-74
2022/03/02 08:05:48;;;;;;;2.03;1.92;;;2.60;99.90;;;;;;5230476;28;20047;-75
2022/03/02 08:08:23;;;;;;;0.60;0.60;;;2.70;99.90;;;;;;5253990;28;20043;-75
2022/03/02 08:10:56;;;;;;;0.70;0.70;;;3.00;99.90;;;;;;5234968;28;20036;-75
2022/03/02 08:13:33;;;;;;;0.73;0.73;;;2.90;99.90;;;;;;5236917;28;20073;-74
2022/03/02 08:16:07;;;;;;;1.30;1.20;;;2.90;99.90;;;;;;5240428;28;20040;-74
2022/03/02 08:18:40;;;;;;;1.92;1.83;;;3.00;99.90;;;;;;5245762;28;20482;-75
2022/03/02 08:21:19;;;;;;;0.90;0.90;;;2.90;99.90;;;;;;5245283;28;20368;-76
2022/03/02 08:23:59;;;;;;;0.90;0.90;;;3.00;99.90;;;;;;5219355;28;20043;-76
2022/03/02 08:26:33;;;;;;;1.10;1.10;;;3.20;99.90;;;;;;5241474;28;20122;-75
2022/03/02 08:29:11;;;;;;;1.52;1.42;;;3.20;99.90;;;;;;5223464;28;20206;-75
2022/03/02 08:31:49;;;;;;;1.20;1.20;;;3.30;99.90;;;;;;5249874;28;20059;-75
2022/03/02 08:34:24;;;;;;;1.02;1.02;;;3.60;99.90;;;;;;5241148;28;20031;-75
2022/03/02 08:36:59;;;;;;;1.88;1.73;;;3.70;99.90;;;;;;5241826;28;20071;-74
2022/03/02 08:39:30;;;;;;;0.60;0.60;;;3.60;99.90;;;;;;5259025;28;20033;-75
2022/03/02 08:42:05;;;;;;;0.68;0.68;;;3.60;99.90;;;;;;5251170;28;20078;-75
2022/03/02 08:44:37;;;;;;;0.50;0.50;;;3.50;99.90;;;;;;5244389;28;20041;-75
2022/03/02 08:47:09;;;;;;;0.70;0.70;;;3.60;99.90;;;;;;5259771;28;20020;-77
2022/03/02 08:49:42;;;;;;;1.27;1.27;;;3.70;99.90;;;;;;5254735;28;20043;-75
2022/03/02 08:52:14;;;;;;;1.52;1.42;;;3.90;99.90;;;;;;5223890;28;20047;-76
2022/03/02 08:54:51;;;;;;;1.02;1.02;;;4.00;99.90;;;;;;5230844;28;20024;-75
2022/03/02 08:57:26;;;;;;;0.47;0.47;;;4.10;99.90;;;;;;5221498;28;20049;-76
2022/03/02 08:59:58;;;;;;;;;;;3.90;99.90;;;;;;5241476;28;20046;-75
2022/03/02 09:02:32;;;;;;;0.70;0.70;;;4.00;99.90;;;;;;5226939;28;19918;-75
2022/03/02 09:05:08;;;;;;;2.10;2.00;;;3.90;99.90;;;;;;5198743;28;20067;-75
2022/03/02 09:07:45;;;;;;;1.13;1.13;;;4.00;99.90;;;;;;5234666;28;20032;-76
2022/03/02 09:10:17;;;;;;;1.00;1.00;;;4.40;99.90;;;;;;5220385;28;20036;-75
2022/03/02 09:12:51;;;;;;;1.00;1.00;;;4.40;99.90;;;;;;5233128;28;20036;-75
2022/03/02 09:15:25;;;;;;;0.85;0.85;;;4.40;99.90;;;;;;5239550;28;20036;-76
2022/03/02 09:18:05;;;;;;;;;;;4.40;99.90;;;;;;5240187;28;20478;-75
2022/03/02 09:20:42;;;;;;;0.60;0.60;;;4.50;99.90;;;;;;5240009;28;20364;-75
2022/03/02 09:23:15;;;;;;;0.88;0.88;;;4.70;99.90;;;;;;5239895;28;20325;-74
2022/03/02 09:25:52;;;;;;;0.60;0.60;;;4.60;99.90;;;;;;5227518;28;20036;-77
2022/03/02 09:28:28;;;;;;;0.70;0.70;;;4.70;99.90;;;;;;5225025;28;20040;-76
2022/03/02 09:31:04;;;;;;;0.80;0.80;;;4.70;99.90;;;;;;5242646;28;20654;-75
2022/03/02 09:33:41;;;;;;;0.60;0.60;;;4.80;99.90;;;;;;5226327;28;20035;-75
2022/03/02 09:36:12;;;;;;;0.55;0.55;;;4.60;99.90;;;;;;5232879;28;20086;-76
2022/03/02 09:38:47;;;;;;;1.10;1.10;;;4.80;99.90;;;;;;5225164;28;20343;-74
2022/03/02 09:41:32;;;;;;;;;;;4.70;99.90;;;;;;5212835;28;20047;-75
2022/03/02 09:44:16;;;;;;;0.82;0.82;;;4.90;99.90;;;;;;5231443;28;20412;-76
2022/03/02 09:46:57;;;;;;;0.80;0.80;;;5.20;99.90;;;;;;5247365;28;20039;-76
2022/03/02 09:49:37;;;;;;;0.80;0.80;;;5.40;99.90;;;;;;5237600;28;20032;-75
2022/03/02 09:52:09;;;;;;;1.23;1.20;;;5.40;99.90;;;;;;5233855;28;20044;-75
2022/03/02 09:54:50;;;;;;;0.70;0.70;;;5.30;99.90;;;;;;5242103;28;20389;-76
2022/03/02 09:57:23;;;;;;;0.80;0.80;;;5.80;99.90;;;;;;5239899;28;20038;-76
2022/03/02 09:59:57;;;;;;;0.65;0.65;;;6.00;99.90;;;;;;5218995;28;20225;-76
2022/03/02 10:02:36;;;;;;;0.80;0.80;;;6.30;99.90;;;;;;5260267;28;20054;-76
2022/03/02 10:05:23;;;;;;;0.98;0.98;;;6.10;99.90;;;;;;5233141;28;20061;-76
2022/03/02 10:08:04;;;;;;;1.35;1.30;;;6.40;99.90;;;;;;5250377;28;20073;-77
2022/03/02 10:10:44;;;;;;;1.30;1.30;;;6.20;99.90;;;;;;5249035;28;20558;-77
2022/03/02 10:13:17;;;;;;;1.40;1.40;;;5.80;99.90;;;;;;5251218;28;20028;-76
2022/03/02 10:15:53;;;;;;;1.15;1.15;;;5.40;99.90;;;;;;5238586;28;20042;-75
2022/03/02 10:18:34;;;;;;;0.70;0.70;;;5.70;99.90;;;;;;5232896;28;20028;-77
2022/03/02 10:21:05;;;;;;;0.60;0.60;;;5.90;99.90;;;;;;5253550;28;20045;-76
2022/03/02 10:23:45;;;;;;;0.80;0.80;;;5.90;99.90;;;;;;5256963;28;20518;-76
2022/03/02 10:26:29;;;;;;;0.95;0.95;;;6.00;99.90;;;;;;5266997;28;20031;-77
2022/03/02 10:30:04;;;;;;;0.77;0.77;;;6.30;99.90;;;;;;5248653;28;20116;-76
2022/03/02 10:32:40;;;;;;;0.50;0.50;;;7.40;99.90;;;;;;5175531;28;20045;-78
2022/03/02 10:35:13;;;;;;;0.70;0.70;;;7.50;99.90;;;;;;5193876;28;20060;-76
2022/03/02 10:38:04;;;;;;;1.83;1.67;;;7.60;99.90;;;;;;5187938;28;20037;-77
2022/03/02 10:40:37;;;;;;;1.00;1.00;;;7.10;99.90;;;;;;5177012;28;20037;-77
2022/03/02 10:43:15;;;;;;;0.80;0.80;;;7.20;99.90;;;;;;5176619;28;20043;-76
2022/03/02 10:45:51;;;;;;;0.88;0.88;;;7.60;99.90;;;;;;5181553;28;20067;-77
2022/03/02 10:48:42;;;;;;;1.77;1.67;;;7.70;99.90;;;;;;5165758;28;20051;-77
2022/03/02 10:51:14;;;;;;;2.17;1.98;;;8.10;99.90;;;;;;5180950;28;20064;-76
2022/03/02 10:53:50;;;;;;;1.00;1.00;;;8.40;99.90;;;;;;5188584;28;20033;-76
2022/03/02 10:56:27;;;;;;;1.73;1.63;;;8.40;99.90;;;;;;5185325;28;20041;-77
2022/03/02 10:59:02;;;;;;;1.20;1.20;;;8.90;99.90;;;;;;5183083;28;20051;-77
2022/03/02 11:01:37;;;;;;;0.80;0.80;;;8.50;99.90;;;;;;5190779;28;20156;-76
2022/03/02 11:04:09;;;;;;;1.50;1.40;;;8.50;99.90;;;;;;5251125;28;20056;-76
2022/03/02 11:06:46;;;;;;;1.58;1.58;;;8.90;99.90;;;;;;5236147;28;20050;-77
2022/03/02 11:09:20;;;;;;;0.63;0.63;;;8.60;99.90;;;;;;5263067;28;20028;-76
2022/03/02 11:11:55;;;;;;;;;;;8.50;99.90;;;;;;5256897;28;20044;-78
2022/03/02 11:14:27;;;;;;;1.17;1.17;;;8.60;99.90;;;;;;5225779;28;19926;-77
2022/03/02 11:17:16;;;;;;;1.38;1.38;;;8.30;99.90;;;;;;5232337;28;20051;-77
2022/03/02 11:19:47;;;;;;;0.70;0.70;;;8.70;99.90;;;;;;5251907;28;20036;-76
2022/03/02 11:22:22;;;;;;;1.65;1.65;;;9.00;99.90;;;;;;5225730;28;20486;-77
2022/03/02 11:24:55;;;;;;;;;;;8.90;99.90;;;;;;5243520;28;20043;-77
2022/03/02 11:27:28;;;;;;;0.82;0.82;;;9.20;99.90;;;;;;5235121;28;19927;-76
2022/03/02 11:30:20;;;;;;;0.90;0.90;;;9.30;99.90;;;;;;5238869;28;20238;-77
2022/03/02 11:32:52;;;;;;;1.10;1.10;;;10.10;99.90;;;;;;5245431;28;20079;-77
2022/03/02 11:35:30;;;;;;;1.30;1.30;;;9.90;99.90;;;;;;5231041;28;20039;-78
2022/03/02 11:38:07;;;;;;;1.00;1.00;;;10.10;99.90;;;;;;5226380;28;20055;-76
2022/03/02 11:40:50;;;;;;;1.85;1.75;;;10.20;99.90;;;;;;5237428;28;20028;-77
2022/03/02 11:43:28;;;;;;;1.70;1.60;;;10.00;99.90;;;;;;5210974;28;20052;-73
2022/03/02 11:46:08;;;;;;;0.80;0.80;;;9.90;99.90;;;;;;5236631;28;20254;-73
2022/03/02 11:48:43;;;;;;;2.03;1.92;;;10.40;99.90;;;;;;5221249;28;20402;-75
2022/03/02 11:51:25;;;;;;;1.65;1.55;;;10.40;99.90;;;;;;5226115;28;20179;-76
2022/03/02 11:53:59;;;;;;;1.17;1.17;;;11.90;99.90;;;;;;5251859;28;20158;-77
2022/03/02 11:56:31;;;;;;;1.52;1.48;;;11.20;98.50;;;;;;5240852;28;20577;-77
2022/03/02 11:59:11;;;;;;;1.50;1.50;;;10.20;99.40;;;;;;5263860;28;20041;-78
2022/03/02 12:01:55;;;;;;;1.23;1.23;;;9.00;99.40;;;;;;5215590;28;20050;-77
2022/03/02 12:04:32;;;;;;;1.52;1.52;;;9.80;98.80;;;;;;5242702;28;20032;-77
2022/03/02 12:07:08;;;;;;;2.42;2.22;;;10.40;98.10;;;;;;5201620;28;20565;-77
2022/03/02 12:09:42;;;;;;;1.02;1.02;;;10.10;99.30;;;;;;5243855;28;20044;-76
2022/03/02 12:12:16;;;;;;;0.90;0.90;;;11.20;99.30;;;;;;5246410;28;20037;-77
2022/03/02 12:14:57;;;;;;;;;;;12.20;97.20;;;;;;5236801;28;20051;-77
2022/03/02 12:17:36;;;;;;;1.65;1.55;;;10.50;98.00;;;;;;5226360;28;19912;-78
2022/03/02 12:20:22;;;;;;;1.77;1.67;;;10.60;97.50;;;;;;5246861;28;20044;-77
2022/03/02 12:22:57;;;;;;;2.22;2.05;;;10.00;97.20;;;;;;5232429;28;20044;-76
2022/03/02 12:25:31;;;;;;;1.02;1.02;;;10.40;98.60;;;;;;5236195;28;20344;-77
2022/03/02 12:28:11;;;;;;;1.07;1.07;;;11.40;97.40;;;;;;5255791;28;20501;-78
2022/03/02 12:30:43;;;;;;;1.60;1.60;;;11.60;97.00;;;;;;5246709;28;20051;-76
2022/03/02 12:33:24;;;;;;;1.30;1.25;;;10.70;97.40;;;;;;5263071;28;20050;-77
2022/03/02 12:35:55;;;;;;;1.20;1.20;;;10.20;97.70;;;;;;5246559;28;20089;-78
2022/03/02 12:38:30;;;;;;;1.05;1.05;;;11.10;97.70;;;;;;5258082;28;20039;-78
2022/03/02 12:41:02;;;;;;;1.75;1.70;;;12.30;97.10;;;;;;5223253;28;20055;-77
2022/03/02 12:43:35;;;;;;;0.93;0.93;;;11.70;97.10;;;;;;5240418;28;20480;-77
2022/03/02 12:46:10;;;;;;;0.93;0.93;;;11.40;96.80;;;;;;5248901;28;20037;-76
2022/03/02 12:48:51;;;;;;;0.90;0.90;;;10.90;97.50;;;;;;5248212;28;20058;-77
2022/03/02 12:51:29;;;;;;;1.63;1.52;;;12.50;96.00;;;;;;5227036;28;20046;-78
2022/03/02 12:54:01;;;;;;;1.60;1.50;;;11.30;96.10;;;;;;5251989;28;20078;-78
2022/03/02 12:56:37;;;;;;;0.80;0.80;;;11.20;96.80;;;;;;5259668;28;20032;-78
2022/03/02 12:59:08;;;;;;;0.80;0.80;;;11.80;96.40;;;;;;5209938;28;20063;-79
2022/03/02 13:01:41;;;;;;;1.50;1.50;;;12.00;95.50;;;;;;5256441;28;20501;-78
2022/03/02 13:04:26;;;;;;;1.00;1.00;;;11.40;95.30;;;;;;5217550;28;20436;-77
2022/03/02 13:07:16;;;;;;;0.60;0.60;;;11.20;95.30;;;;;;5221527;28;20321;-77
2022/03/02 13:09:51;;;;;;;0.80;0.80;;;12.20;95.20;;;;;;5233982;28;20081;-79
2022/03/02 13:12:46;;;;;;;1.08;1.08;;;11.40;94.70;;;;;;5234384;28;20046;-78
2022/03/02 13:15:49;;;;;;;1.75;1.67;;;11.50;94.40;;;;;;5241452;28;20032;-76
2022/03/02 13:18:26;;;;;;;1.33;1.25;;;11.30;95.00;;;;;;5250285;28;20397;-77
2022/03/02 13:21:00;;;;;;;1.05;1.05;;;11.50;94.20;;;;;;5218954;28;20075;-78
2022/03/02 13:23:35;;;;;;;0.90;0.90;;;12.30;93.60;;;;;;5229207;28;20354;-77
2022/03/02 13:26:07;;;;;;;1.35;1.27;;;11.80;93.40;;;;;;5234655;28;20052;-77
2022/03/02 13:29:22;;;;;;;3.63;1.52;;;11.40;94.50;;;;;;5247316;28;20044;-77
2022/03/02 13:32:03;;;;;;;1.00;1.00;;;10.40;93.90;;;;;;5227634;28;20537;-77
2022/03/02 13:34:39;;;;;;;1.73;1.63;;;10.40;93.90;;;;;;5235291;28;20431;-77
2022/03/02 13:37:10;;;;;;;0.80;0.80;;;10.70;93.40;;;;;;5231344;28;20421;-76
2022/03/02 13:39:50;;;;;;;1.25;1.25;;;11.10;93.10;;;;;;5228109;28;20226;-78
2022/03/02 13:42:25;;;;;;;1.10;1.10;;;12.20;92.00;;;;;;5233217;28;20210;-77